Time;durP1;ratioP1;P1;durP2;ratioP2;P2;SDS_P1;SDS_P2;PMS_P1;PMS_P2;Temp;Humidity;BMP_temperature;BMP_pressure;BME280_temperature;BME280_humidity;BME280_pressure;Samples;Min_cycle;Max_cycle;Signal;HPM_P1;HPM_P2
2021/03/01 00:01:18;;;;;;;30.08;16.08;;;;;;;;;;5114802;28;20301;-62
2021/03/01 00:03:45;;;;;;;25.02;18.00;;;;;;;;;;5114368;28;20320;-62
2021/03/01 00:06:11;;;;;;;27.40;18.15;;;;;;;;;;5114215;28;20228;-62
2021/03/01 00:08:39;;;;;;;26.17;17.27;;;;;;;;;;5114411;28;20198;-62
2021/03/01 00:11:06;;;;;;;27.90;17.42;;;;;;;;;;5114334;28;20197;-62
2021/03/01 00:13:32;;;;;;;24.23;17.27;;;;;;;;;;5115228;28;20203;-62
2021/03/01 00:16:00;;;;;;;26.77;17.25;;;;;;;;;;5113997;28;20200;-62
2021/03/01 00:18:27;;;;;;;28.08;17.20;;;;;;;;;;5114759;28;20239;-62
2021/03/01 00:20:53;;;;;;;25.95;15.63;;;;;;;;;;5113840;28;20197;-62
2021/03/01 00:23:20;;;;;;;27.42;18.05;;;;;;;;;;5114217;28;20280;-62
2021/03/01 00:25:47;;;;;;;26.80;18.50;;;;;;;;;;5114626;28;20192;-62
2021/03/01 00:28:14;;;;;;;26.52;17.27;;;;;;;;;;5113894;28;20642;-62
2021/03/01 00:30:41;;;;;;;27.88;16.63;;;;;;;;;;5114093;28;20202;-62
2021/03/01 00:33:08;;;;;;;24.30;16.85;;;;;;;;;;5114115;28;20230;-62
2021/03/01 00:35:34;;;;;;;25.17;16.35;;;;;;;;;;5114066;28;20229;-62
2021/03/01 00:38:01;;;;;;;24.27;17.30;;;;;;;;;;5114478;28;20222;-62
2021/03/01 00:40:29;;;;;;;26.05;17.50;;;;;;;;;;5114028;28;20244;-62
2021/03/01 00:42:57;;;;;;;25.08;17.08;;;;;;;;;;5114458;28;20220;-62
2021/03/01 00:45:23;;;;;;;22.67;15.95;;;;;;;;;;5113702;28;20199;-61
2021/03/01 00:47:50;;;;;;;24.40;16.27;;;;;;;;;;5113553;28;20196;-62
2021/03/01 00:50:19;;;;;;;21.52;15.65;;;;;;;;;;5113969;28;20197;-61
2021/03/01 00:52:45;;;;;;;22.00;16.00;;;;;;;;;;5113586;28;20678;-62
2021/03/01 00:55:12;;;;;;;23.92;16.17;;;;;;;;;;5113965;28;20194;-62
2021/03/01 00:57:39;;;;;;;26.52;15.65;;;;;;;;;;5113923;28;20193;-62
2021/03/01 01:00:11;;;;;;;19.38;14.98;;;;;;;;;;5114274;28;20194;-61
2021/03/01 01:02:38;;;;;;;22.83;16.27;;;;;;;;;;5114309;28;20211;-62
2021/03/01 01:05:05;;;;;;;21.90;15.13;;;;;;;;;;5113905;28;20227;-61
2021/03/01 01:07:32;;;;;;;22.98;16.33;;;;;;;;;;5115688;28;20193;-62
2021/03/01 01:09:59;;;;;;;22.45;15.18;;;;;;;;;;5117891;28;20199;-62
2021/03/01 01:12:25;;;;;;;24.25;16.38;;;;;;;;;;5117895;28;20198;-62
2021/03/01 01:14:52;;;;;;;24.77;17.90;;;;;;;;;;5117477;28;20197;-61
2021/03/01 01:17:19;;;;;;;28.50;16.77;;;;;;;;;;5117996;28;20539;-62
2021/03/01 01:19:46;;;;;;;26.73;16.00;;;;;;;;;;5117948;28;20201;-62
2021/03/01 01:22:13;;;;;;;24.20;16.88;;;;;;;;;;5117526;28;20279;-62
2021/03/01 01:24:39;;;;;;;25.10;16.95;;;;;;;;;;5117592;28;20600;-62
2021/03/01 01:27:06;;;;;;;28.80;16.60;;;;;;;;;;5117910;28;20192;-62
2021/03/01 01:29:33;;;;;;;24.15;15.40;;;;;;;;;;5117837;28;20194;-61
2021/03/01 01:31:59;;;;;;;26.13;16.35;;;;;;;;;;5117188;28;20204;-62
2021/03/01 01:34:27;;;;;;;28.55;17.45;;;;;;;;;;5117521;28;20707;-62
2021/03/01 01:36:54;;;;;;;25.77;16.08;;;;;;;;;;5117858;28;20189;-62
2021/03/01 01:39:20;;;;;;;24.00;15.48;;;;;;;;;;5116996;28;20193;-62
2021/03/01 01:41:47;;;;;;;27.60;15.68;;;;;;;;;;5117343;28;20220;-62
2021/03/01 01:44:14;;;;;;;24.75;15.23;;;;;;;;;;5116891;28;20200;-62
2021/03/01 01:46:40;;;;;;;27.02;16.38;;;;;;;;;;5117044;28;20665;-62
2021/03/01 01:49:07;;;;;;;29.35;16.13;;;;;;;;;;5117106;28;20201;-62
2021/03/01 01:51:36;;;;;;;26.50;14.85;;;;;;;;;;5117490;28;20202;-62
2021/03/01 01:54:03;;;;;;;20.30;14.02;;;;;;;;;;5117071;28;20197;-61
2021/03/01 01:56:30;;;;;;;24.13;15.55;;;;;;;;;;5117003;28;20583;-62
2021/03/01 01:58:57;;;;;;;23.63;15.55;;;;;;;;;;5116934;28;20261;-61
2021/03/01 02:01:24;;;;;;;22.45;15.18;;;;;;;;;;5116830;28;20221;-62
2021/03/01 02:03:53;;;;;;;27.73;15.32;;;;;;;;;;5117002;28;20224;-62
2021/03/01 02:06:23;;;;;;;27.38;15.35;;;;;;;;;;5116794;28;20190;-62
2021/03/01 02:08:57;;;;;;;25.40;14.13;;;;;;;;;;5116935;28;20268;-62
2021/03/01 02:11:29;;;;;;;26.58;15.82;;;;;;;;;;5116885;28;20250;-62
2021/03/01 02:13:59;;;;;;;23.85;14.00;;;;;;;;;;5116410;28;20230;-62
2021/03/01 02:16:31;;;;;;;24.60;14.18;;;;;;;;;;5116652;28;20190;-62
2021/03/01 02:18:59;;;;;;;27.15;14.10;;;;;;;;;;5116817;28;20190;-62
2021/03/01 02:21:26;;;;;;;25.75;15.25;;;;;;;;;;5116122;28;20304;-62
2021/03/01 02:23:54;;;;;;;25.67;13.77;;;;;;;;;;5116498;28;20190;-62
2021/03/01 02:26:24;;;;;;;27.10;14.90;;;;;;;;;;5116617;28;20196;-62
2021/03/01 02:28:52;;;;;;;26.38;15.20;;;;;;;;;;5117062;28;20284;-62
2021/03/01 02:31:19;;;;;;;27.88;13.95;;;;;;;;;;5116768;28;20558;-62
2021/03/01 02:33:47;;;;;;;27.52;14.85;;;;;;;;;;5116544;28;20562;-62
2021/03/01 02:36:16;;;;;;;22.83;13.30;;;;;;;;;;5116268;28;20193;-62
2021/03/01 02:38:44;;;;;;;21.27;13.32;;;;;;;;;;5116215;28;20196;-62
2021/03/01 02:41:12;;;;;;;24.88;14.05;;;;;;;;;;5116065;28;20196;-62
2021/03/01 02:43:40;;;;;;;26.00;14.07;;;;;;;;;;5115771;28;20221;-62
2021/03/01 02:46:07;;;;;;;31.50;15.13;;;;;;;;;;5116029;28;20188;-62
2021/03/01 02:48:35;;;;;;;23.88;13.23;;;;;;;;;;5116115;28;20288;-62
2021/03/01 02:51:02;;;;;;;26.77;14.85;;;;;;;;;;5116225;28;20527;-62
2021/03/01 02:53:30;;;;;;;20.27;13.38;;;;;;;;;;5115579;28;20200;-62
2021/03/01 02:55:57;;;;;;;27.63;14.13;;;;;;;;;;5115532;28;20654;-62
2021/03/01 02:58:25;;;;;;;24.10;13.38;;;;;;;;;;5115814;28;20197;-62
2021/03/01 03:00:53;;;;;;;22.15;12.95;;;;;;;;;;5115741;28;20226;-62
2021/03/01 03:03:20;;;;;;;24.95;14.93;;;;;;;;;;5115243;28;20246;-62
2021/03/01 03:05:47;;;;;;;23.83;12.43;;;;;;;;;;5115686;28;20596;-62
2021/03/01 03:08:15;;;;;;;28.88;12.55;;;;;;;;;;5115578;28;20191;-62
2021/03/01 03:10:42;;;;;;;20.42;13.73;;;;;;;;;;5115497;28;20193;-62
2021/03/01 03:13:10;;;;;;;25.13;12.90;;;;;;;;;;5115540;28;20192;-62
2021/03/01 03:15:38;;;;;;;28.50;15.30;;;;;;;;;;5115459;28;20193;-62
2021/03/01 03:18:05;;;;;;;23.58;13.05;;;;;;;;;;5115697;28;20229;-63
2021/03/01 03:20:31;;;;;;;24.25;12.93;;;;;;;;;;5115728;28;20198;-62
2021/03/01 03:22:58;;;;;;;26.45;14.38;;;;;;;;;;5114885;28;20231;-62
2021/03/01 03:25:25;;;;;;;21.70;13.45;;;;;;;;;;5115265;28;20193;-62
2021/03/01 03:27:51;;;;;;;23.63;13.68;;;;;;;;;;5115699;28;20315;-63
2021/03/01 03:30:21;;;;;;;22.63;14.18;;;;;;;;;;5114556;28;20200;-62
2021/03/01 03:32:49;;;;;;;23.83;14.10;;;;;;;;;;5114734;28;20245;-61
2021/03/01 03:35:16;;;;;;;27.70;15.45;;;;;;;;;;5115091;28;20193;-62
2021/03/01 03:37:45;;;;;;;22.08;12.48;;;;;;;;;;5114958;28;20190;-62
2021/03/01 03:40:13;;;;;;;24.60;11.18;;;;;;;;;;5114977;28;20548;-62
2021/03/01 03:42:40;;;;;;;19.80;12.77;;;;;;;;;;5114786;28;20303;-62
2021/03/01 03:45:08;;;;;;;23.38;13.30;;;;;;;;;;5115694;28;20196;-62
2021/03/01 03:47:35;;;;;;;19.55;11.82;;;;;;;;;;5115022;28;20195;-62
2021/03/01 03:50:05;;;;;;;22.17;11.93;;;;;;;;;;5115001;28;20198;-62
2021/03/01 03:52:33;;;;;;;22.63;11.85;;;;;;;;;;5114785;28;20280;-62
2021/03/01 03:55:00;;;;;;;20.48;12.68;;;;;;;;;;5114392;28;20218;-62
2021/03/01 03:57:29;;;;;;;20.58;12.32;;;;;;;;;;5115472;28;20193;-62
2021/03/01 03:59:56;;;;;;;24.98;13.35;;;;;;;;;;5114334;28;20655;-62
2021/03/01 04:02:24;;;;;;;28.08;12.30;;;;;;;;;;5114948;28;20227;-62
2021/03/01 04:04:51;;;;;;;18.52;12.35;;;;;;;;;;5114218;28;20256;-62
2021/03/01 04:07:19;;;;;;;30.27;12.55;;;;;;;;;;5114454;28;20197;-62
2021/03/01 04:09:47;;;;;;;18.88;12.95;;;;;;;;;;5115227;28;20193;-62
2021/03/01 04:12:14;;;;;;;24.35;12.18;;;;;;;;;;5114941;28;20201;-62
2021/03/01 04:14:42;;;;;;;23.25;11.68;;;;;;;;;;5114143;28;20198;-62
2021/03/01 04:17:11;;;;;;;20.15;12.02;;;;;;;;;;5114458;28;20227;-62
2021/03/01 04:19:39;;;;;;;25.20;12.77;;;;;;;;;;5114370;28;20204;-62
2021/03/01 04:22:06;;;;;;;25.88;12.25;;;;;;;;;;5115055;28;20218;-62
2021/03/01 04:24:35;;;;;;;17.05;10.25;;;;;;;;;;5113933;28;20196;-62
2021/03/01 04:27:03;;;;;;;23.15;12.48;;;;;;;;;;5114244;28;20208;-62
2021/03/01 04:29:30;;;;;;;20.58;12.82;;;;;;;;;;5113852;28;20193;-62
2021/03/01 04:31:58;;;;;;;19.05;11.48;;;;;;;;;;5113800;28;20208;-62
2021/03/01 04:34:26;;;;;;;22.50;11.35;;;;;;;;;;5114794;28;20291;-62
2021/03/01 04:36:53;;;;;;;22.02;12.20;;;;;;;;;;5114836;28;20342;-62
2021/03/01 04:39:20;;;;;;;19.42;11.27;;;;;;;;;;5113750;28;20193;-62
2021/03/01 04:41:48;;;;;;;26.95;12.98;;;;;;;;;;5112693;28;20214;-62
2021/03/01 04:44:15;;;;;;;19.38;11.15;;;;;;;;;;5113710;28;20193;-62
2021/03/01 04:46:43;;;;;;;24.90;11.77;;;;;;;;;;5114264;28;20197;-62
2021/03/01 04:49:11;;;;;;;24.17;15.15;;;;;;;;;;5113975;28;20223;-62
2021/03/01 04:51:38;;;;;;;28.77;15.52;;;;;;;;;;5113628;28;20213;-63
2021/03/01 04:54:05;;;;;;;27.10;13.80;;;;;;;;;;5113574;28;20197;-62
2021/03/01 04:56:31;;;;;;;23.60;13.55;;;;;;;;;;5114177;28;20280;-62
2021/03/01 04:59:00;;;;;;;29.27;13.60;;;;;;;;;;5114032;28;20286;-62
2021/03/01 05:01:27;;;;;;;33.53;14.30;;;;;;;;;;5113734;28;20193;-62
2021/03/01 05:03:54;;;;;;;27.88;14.05;;;;;;;;;;5113287;28;20221;-62
2021/03/01 05:06:21;;;;;;;28.42;12.95;;;;;;;;;;5113808;28;20198;-63
2021/03/01 05:08:48;;;;;;;24.17;12.63;;;;;;;;;;5114272;28;20198;-62
2021/03/01 05:11:25;;;;;;;20.13;12.45;;;;;;;;;;5113771;28;20196;-63
2021/03/01 05:13:52;;;;;;;23.60;14.77;;;;;;;;;;5113685;28;20181;-62
2021/03/01 05:16:19;;;;;;;21.75;12.15;;;;;;;;;;5113741;28;20599;-62
2021/03/01 05:18:46;;;;;;;23.02;12.52;;;;;;;;;;5113299;28;20204;-63
2021/03/01 05:21:13;;;;;;;23.35;12.52;;;;;;;;;;5113807;28;20217;-63
2021/03/01 05:23:39;;;;;;;22.58;12.50;;;;;;;;;;5113680;28;20219;-63
2021/03/01 05:26:06;;;;;;;24.73;12.95;;;;;;;;;;5128023;28;20200;-63
2021/03/01 05:28:33;;;;;;;31.88;15.18;;;;;;;;;;5133267;28;20200;-63
2021/03/01 05:30:59;;;;;;;22.27;13.23;;;;;;;;;;5133432;28;20192;-63
2021/03/01 05:33:27;;;;;;;27.85;16.00;;;;;;;;;;5132880;28;20204;-63
2021/03/01 05:35:54;;;;;;;28.63;15.63;;;;;;;;;;5133362;28;20193;-63
2021/03/01 05:38:20;;;;;;;22.85;14.27;;;;;;;;;;5132900;28;20739;-63
2021/03/01 05:40:47;;;;;;;30.58;15.00;;;;;;;;;;5133435;28;20288;-63
2021/03/01 05:43:14;;;;;;;27.60;14.80;;;;;;;;;;5133752;28;20251;-63
2021/03/01 05:45:42;;;;;;;28.58;14.00;;;;;;;;;;5133662;28;20208;-62
2021/03/01 05:48:10;;;;;;;22.80;14.65;;;;;;;;;;5134199;28;20196;-62
2021/03/01 05:50:39;;;;;;;33.25;15.93;;;;;;;;;;5133415;28;20199;-62
2021/03/01 05:53:07;;;;;;;31.10;15.70;;;;;;;;;;5134683;27;20192;-63
2021/03/01 05:55:34;;;;;;;23.88;14.65;;;;;;;;;;5137338;27;20244;-63
2021/03/01 05:58:02;;;;;;;28.65;15.65;;;;;;;;;;5137337;27;20192;-63
2021/03/01 06:00:29;;;;;;;30.38;14.73;;;;;;;;;;5137257;27;20192;-63
2021/03/01 06:02:57;;;;;;;28.85;14.40;;;;;;;;;;5137018;27;20596;-62
2021/03/01 06:05:24;;;;;;;29.98;15.48;;;;;;;;;;5136941;27;20185;-63
2021/03/01 06:07:56;;;;;;;23.88;14.10;;;;;;;;;;5137095;27;20662;-62
2021/03/01 06:10:22;;;;;;;27.95;14.48;;;;;;;;;;5137226;27;20184;-63
2021/03/01 06:12:49;;;;;;;23.63;14.25;;;;;;;;;;5136959;27;20683;-63
2021/03/01 06:15:16;;;;;;;28.75;16.48;;;;;;;;;;5137000;27;20244;-63
2021/03/01 06:18:03;;;;;;;27.17;14.20;;;;;;;;;;5138178;27;20310;-64
2021/03/01 06:20:30;;;;;;;30.40;16.40;;;;;;;;;;5137056;27;20187;-62
2021/03/01 06:22:58;;;;;;;26.90;15.50;;;;;;;;;;5136568;27;20212;-63
2021/03/01 06:25:25;;;;;;;28.83;14.77;;;;;;;;;;5136425;27;20209;-62
2021/03/01 06:27:53;;;;;;;32.10;17.10;;;;;;;;;;5136764;27;20215;-63
2021/03/01 06:30:21;;;;;;;29.13;14.82;;;;;;;;;;5136872;27;20192;-62
2021/03/01 06:33:15;;;;;;;31.05;16.77;;;;;;;;;;5136924;27;20604;-62
2021/03/01 06:35:44;;;;;;;31.55;16.17;;;;;;;;;;5088474;27;20199;-62
2021/03/01 06:38:21;;;;;;;30.33;16.90;;;;;;;;;;5136686;27;20223;-62
2021/03/01 06:41:02;;;;;;;34.17;18.10;;;;;;;;;;5136887;27;20248;-70
2021/03/01 06:43:29;;;;;;;32.40;16.10;;;;;;;;;;5136164;27;20315;-62
2021/03/01 06:46:06;;;;;;;28.33;16.60;;;;;;;;;;5136583;27;20215;-62
2021/03/01 06:48:32;;;;;;;31.95;15.60;;;;;;;;;;5136463;27;20649;-62
2021/03/01 06:50:59;;;;;;;32.38;16.42;;;;;;;;;;5136739;27;20229;-62
2021/03/01 06:53:27;;;;;;;31.88;16.85;;;;;;;;;;5136411;27;20196;-62
2021/03/01 06:55:58;;;;;;;34.00;17.45;;;;;;;;;;5136092;27;20197;-64
2021/03/01 06:58:26;;;;;;;30.00;14.40;;;;;;;;;;5136333;27;20725;-62
2021/03/01 07:01:01;;;;;;;31.73;17.73;;;;;;;;;;5136210;27;20559;-63
2021/03/01 07:03:27;;;;;;;32.38;17.08;;;;;;;;;;5136425;27;20712;-63
2021/03/01 07:05:55;;;;;;;29.58;14.70;;;;;;;;;;5134949;27;20235;-63
2021/03/01 07:08:40;;;;;;;31.95;16.65;;;;;;;;;;5135808;27;20283;-61
2021/03/01 07:11:20;;;;;;;36.83;18.20;;;;;;;;;;5136190;27;20220;-63
2021/03/01 07:13:47;;;;;;;33.58;18.02;;;;;;;;;;5136123;27;20297;-63
2021/03/01 07:16:14;;;;;;;34.40;18.90;;;;;;;;;;5135936;27;20283;-62
2021/03/01 07:18:41;;;;;;;35.47;18.25;;;;;;;;;;5136773;27;20280;-63
2021/03/01 07:21:10;;;;;;;37.53;18.30;;;;;;;;;;5136008;27;20283;-63
2021/03/01 07:23:37;;;;;;;28.30;16.70;;;;;;;;;;5135419;27;20213;-64
2021/03/01 07:26:05;;;;;;;39.45;20.05;;;;;;;;;;5135822;27;20228;-63
2021/03/01 07:28:33;;;;;;;43.50;18.45;;;;;;;;;;5135642;27;20296;-63
2021/03/01 07:31:02;;;;;;;27.98;17.10;;;;;;;;;;5135692;27;20192;-63
2021/03/01 07:33:29;;;;;;;30.35;16.27;;;;;;;;;;5135600;27;20201;-62
2021/03/01 07:35:57;;;;;;;32.92;18.90;;;;;;;;;;5136353;27;20275;-62
2021/03/01 07:38:24;;;;;;;26.55;15.93;;;;;;;;;;5135544;27;20193;-63
2021/03/01 07:40:51;;;;;;;37.38;17.35;;;;;;;;;;5135508;27;20193;-63
2021/03/01 07:43:19;;;;;;;27.02;17.60;;;;;;;;;;5135277;27;20220;-62
2021/03/01 07:45:47;;;;;;;29.13;17.40;;;;;;;;;;5135013;27;20201;-62
2021/03/01 07:48:14;;;;;;;29.88;16.83;;;;;;;;;;5136146;27;20636;-62
2021/03/01 07:50:44;;;;;;;27.23;16.67;;;;;;;;;;5135278;27;20189;-62
2021/03/01 07:53:29;;;;;;;41.83;17.85;;;;;;;;;;5135159;27;20194;-62
2021/03/01 07:55:56;;;;;;;30.65;17.55;;;;;;;;;;5135492;27;20190;-62
2021/03/01 07:58:23;;;;;;;33.08;18.83;;;;;;;;;;5135189;27;20280;-63
2021/03/01 08:00:50;;;;;;;45.55;16.85;;;;;;;;;;5135051;27;20283;-62
2021/03/01 08:03:36;;;;;;;31.05;17.00;;;;;;;;;;5134700;27;20223;-62
2021/03/01 08:06:04;;;;;;;36.35;18.88;;;;;;;;;;5135172;27;20284;-64
2021/03/01 08:08:45;;;;;;;36.47;17.23;;;;;;;;;;5134968;27;20196;-63
2021/03/01 08:11:12;;;;;;;33.53;17.67;;;;;;;;;;5132145;27;20333;-62
2021/03/01 08:13:39;;;;;;;36.63;18.73;;;;;;;;;;5135070;27;20289;-62
2021/03/01 08:16:19;;;;;;;33.15;16.60;;;;;;;;;;5135152;27;20225;-63
2021/03/01 08:18:52;;;;;;;33.30;17.02;;;;;;;;;;5135248;27;20228;-62
2021/03/01 08:21:19;;;;;;;30.27;16.45;;;;;;;;;;5134371;27;20205;-62
2021/03/01 08:23:47;;;;;;;29.80;18.23;;;;;;;;;;5134821;27;20333;-62
2021/03/01 08:26:27;;;;;;;28.83;15.10;;;;;;;;;;5134891;27;20189;-62
2021/03/01 08:28:55;;;;;;;26.73;16.52;;;;;;;;;;5134816;27;20586;-63
2021/03/01 08:31:46;;;;;;;27.65;14.60;;;;;;;;;;5134560;27;20713;-63
2021/03/01 08:34:30;;;;;;;30.02;17.80;;;;;;;;;;5114349;27;20562;-63
2021/03/01 08:36:57;;;;;;;29.52;17.17;;;;;;;;;;5134582;27;20592;-63
2021/03/01 08:39:42;;;;;;;31.60;19.10;;;;;;;;;;5134793;27;20657;-63
2021/03/01 08:42:09;;;;;;;29.17;16.70;;;;;;;;;;5134425;27;20721;-62
2021/03/01 08:44:36;;;;;;;33.17;18.50;;;;;;;;;;5134489;27;20200;-63
2021/03/01 08:47:04;;;;;;;33.10;17.17;;;;;;;;;;5134356;28;20651;-63
2021/03/01 08:49:31;;;;;;;32.05;19.23;;;;;;;;;;5134500;28;20677;-63
2021/03/01 08:51:58;;;;;;;27.52;17.50;;;;;;;;;;5133828;28;20204;-63
2021/03/01 08:54:29;;;;;;;37.83;18.88;;;;;;;;;;5134640;28;20535;-63
2021/03/01 08:57:03;;;;;;;30.92;16.35;;;;;;;;;;5134516;28;20233;-63
2021/03/01 08:59:30;;;;;;;36.38;17.80;;;;;;;;;;5134288;28;20185;-63
2021/03/01 09:01:56;;;;;;;28.15;15.52;;;;;;;;;;5133776;28;20284;-63
2021/03/01 09:04:23;;;;;;;34.15;17.88;;;;;;;;;;5134367;28;20224;-62
2021/03/01 09:06:51;;;;;;;28.33;17.38;;;;;;;;;;5134222;28;20229;-62
2021/03/01 09:09:18;;;;;;;27.65;16.77;;;;;;;;;;5134257;28;20279;-63
2021/03/01 09:11:45;;;;;;;31.58;17.83;;;;;;;;;;5133898;28;20189;-62
2021/03/01 09:14:12;;;;;;;30.65;15.85;;;;;;;;;;5133818;28;20672;-62
2021/03/01 09:16:40;;;;;;;31.77;17.45;;;;;;;;;;5133663;28;20245;-62
2021/03/01 09:19:08;;;;;;;32.42;16.17;;;;;;;;;;5134697;28;20196;-62
2021/03/01 09:21:37;;;;;;;28.58;15.98;;;;;;;;;;5134143;28;20199;-62
2021/03/01 09:24:06;;;;;;;31.02;17.23;;;;;;;;;;5133735;28;20307;-62
2021/03/01 09:26:33;;;;;;;24.20;15.40;;;;;;;;;;5133808;28;20247;-62
2021/03/01 09:29:01;;;;;;;35.40;17.80;;;;;;;;;;5137362;27;20223;-62
2021/03/01 09:31:28;;;;;;;26.50;16.20;;;;;;;;;;5137887;27;20197;-62
2021/03/01 09:33:55;;;;;;;25.58;15.90;;;;;;;;;;5137966;27;20290;-65
2021/03/01 09:36:22;;;;;;;32.10;17.88;;;;;;;;;;5137737;27;20203;-63
2021/03/01 09:38:52;;;;;;;27.80;16.73;;;;;;;;;;5138028;27;20567;-62
2021/03/01 09:41:20;;;;;;;31.30;17.60;;;;;;;;;;5137997;27;20275;-62
2021/03/01 09:43:49;;;;;;;30.52;16.25;;;;;;;;;;5138134;27;20216;-65
2021/03/01 09:46:16;;;;;;;31.80;16.73;;;;;;;;;;5137789;27;20234;-62
2021/03/01 09:48:44;;;;;;;32.17;15.80;;;;;;;;;;5138168;27;20292;-63
2021/03/01 09:51:12;;;;;;;25.92;14.95;;;;;;;;;;5138463;27;20283;-63
2021/03/01 09:53:39;;;;;;;29.63;17.80;;;;;;;;;;5137803;27;20197;-63
2021/03/01 09:56:06;;;;;;;28.63;16.63;;;;;;;;;;5137430;27;20194;-62
2021/03/01 09:58:34;;;;;;;27.95;16.17;;;;;;;;;;5137293;27;20283;-62
2021/03/01 10:01:08;;;;;;;28.38;16.38;;;;;;;;;;5137999;27;20201;-62
2021/03/01 10:03:35;;;;;;;25.50;15.05;;;;;;;;;;5137009;27;20227;-63
2021/03/01 10:06:02;;;;;;;26.65;14.95;;;;;;;;;;5137026;27;20295;-62
2021/03/01 10:08:29;;;;;;;27.88;15.43;;;;;;;;;;5137743;27;20232;-62
2021/03/01 10:10:56;;;;;;;21.38;13.73;;;;;;;;;;5137279;27;20244;-63
2021/03/01 10:13:25;;;;;;;23.98;15.85;;;;;;;;;;5137304;27;20325;-62
2021/03/01 10:15:53;;;;;;;28.50;16.40;;;;;;;;;;5137282;27;20197;-62
2021/03/01 10:18:22;;;;;;;25.02;15.02;;;;;;;;;;5137167;27;20661;-62
2021/03/01 10:20:53;;;;;;;24.60;14.70;;;;;;;;;;5137532;27;20196;-63
2021/03/01 10:23:26;;;;;;;24.80;14.27;;;;;;;;;;5136540;27;20210;-62
2021/03/01 10:26:02;;;;;;;23.15;14.32;;;;;;;;;;5136846;27;20578;-63
2021/03/01 10:28:30;;;;;;;26.77;14.27;;;;;;;;;;5136866;27;20184;-62
2021/03/01 10:31:02;;;;;;;28.38;15.77;;;;;;;;;;5136838;27;20227;-63
2021/03/01 10:33:28;;;;;;;21.88;15.13;;;;;;;;;;5136787;27;20234;-63
2021/03/01 10:36:08;;;;;;;23.42;14.18;;;;;;;;;;5137376;27;20224;-62
2021/03/01 10:38:51;;;;;;;21.13;14.02;;;;;;;;;;5136323;27;20674;-63
2021/03/01 10:41:19;;;;;;;24.30;15.13;;;;;;;;;;5136646;27;20198;-62
2021/03/01 10:43:52;;;;;;;21.65;13.18;;;;;;;;;;5136141;27;20674;-62
2021/03/01 10:46:33;;;;;;;26.40;16.13;;;;;;;;;;5136413;27;20193;-63
2021/03/01 10:49:00;;;;;;;22.23;13.90;;;;;;;;;;5136649;27;20200;-63
2021/03/01 10:51:26;;;;;;;19.85;14.15;;;;;;;;;;5136438;27;20307;-63
2021/03/01 10:53:53;;;;;;;21.65;13.75;;;;;;;;;;5136172;27;20301;-62
2021/03/01 10:56:20;;;;;;;32.25;17.20;;;;;;;;;;5136309;27;20201;-62
2021/03/01 10:58:49;;;;;;;25.20;15.65;;;;;;;;;;5135970;27;20199;-62
2021/03/01 11:01:16;;;;;;;25.73;14.57;;;;;;;;;;5135976;27;20228;-62
2021/03/01 11:03:45;;;;;;;27.30;15.90;;;;;;;;;;5135946;27;20243;-63
2021/03/01 11:06:13;;;;;;;25.27;14.13;;;;;;;;;;5137200;27;20265;-63
2021/03/01 11:08:40;;;;;;;25.23;16.00;;;;;;;;;;5138663;27;20193;-63
2021/03/01 11:11:07;;;;;;;23.60;14.32;;;;;;;;;;5136755;27;20204;-63
2021/03/01 11:13:33;;;;;;;27.73;16.65;;;;;;;;;;5135715;27;20202;-62
2021/03/01 11:16:00;;;;;;;24.35;13.32;;;;;;;;;;5135916;27;20193;-62
2021/03/01 11:18:27;;;;;;;26.02;15.85;;;;;;;;;;5136227;27;20238;-62
2021/03/01 11:20:54;;;;;;;26.65;15.63;;;;;;;;;;5135867;27;20590;-62
2021/03/01 11:23:21;;;;;;;26.67;15.10;;;;;;;;;;5135372;27;20220;-63
2021/03/01 11:25:48;;;;;;;25.30;15.75;;;;;;;;;;5135695;27;20192;-62
2021/03/01 11:28:15;;;;;;;36.30;16.65;;;;;;;;;;5135744;27;20332;-63
2021/03/01 11:30:42;;;;;;;22.65;15.35;;;;;;;;;;5136241;27;20197;-63
2021/03/01 11:33:09;;;;;;;26.52;15.93;;;;;;;;;;5135528;27;20227;-63
2021/03/01 11:35:35;;;;;;;23.90;13.30;;;;;;;;;;5135610;27;20225;-62
2021/03/01 11:38:03;;;;;;;27.20;14.75;;;;;;;;;;5135469;27;20280;-63
2021/03/01 11:40:30;;;;;;;30.40;16.30;;;;;;;;;;5135321;27;20706;-62
2021/03/01 11:42:57;;;;;;;21.90;14.57;;;;;;;;;;5135468;27;20308;-62
2021/03/01 11:45:24;;;;;;;24.58;15.95;;;;;;;;;;5135005;27;20194;-62
2021/03/01 11:47:50;;;;;;;23.08;15.35;;;;;;;;;;5135748;27;20226;-62
2021/03/01 11:50:17;;;;;;;22.23;15.10;;;;;;;;;;5135026;27;20194;-63
2021/03/01 11:52:44;;;;;;;20.10;12.60;;;;;;;;;;5135157;27;20198;-62
2021/03/01 11:55:12;;;;;;;18.95;12.48;;;;;;;;;;5134930;27;20281;-63
2021/03/01 11:57:39;;;;;;;21.65;14.05;;;;;;;;;;5134789;27;20284;-63
2021/03/01 12:00:07;;;;;;;23.70;14.18;;;;;;;;;;5135101;27;20279;-63
2021/03/01 12:02:34;;;;;;;19.38;13.65;;;;;;;;;;5135013;27;20214;-63
2021/03/01 12:05:01;;;;;;;19.52;14.13;;;;;;;;;;5135470;27;20308;-63
2021/03/01 12:07:27;;;;;;;19.65;13.98;;;;;;;;;;5134864;27;20295;-63
2021/03/01 12:09:54;;;;;;;32.40;15.68;;;;;;;;;;5134925;27;20190;-63
2021/03/01 12:12:22;;;;;;;20.95;13.82;;;;;;;;;;5134706;27;20706;-63
2021/03/01 12:14:48;;;;;;;17.63;12.05;;;;;;;;;;5135707;27;20610;-63
2021/03/01 12:17:15;;;;;;;21.52;14.40;;;;;;;;;;5134853;27;20664;-63
2021/03/01 12:19:42;;;;;;;21.25;13.07;;;;;;;;;;5134542;27;20229;-63
2021/03/01 12:22:10;;;;;;;23.20;14.75;;;;;;;;;;5134512;27;20193;-62
2021/03/01 12:24:37;;;;;;;19.60;12.80;;;;;;;;;;5134413;27;20585;-63
2021/03/01 12:27:03;;;;;;;26.92;14.57;;;;;;;;;;5134269;27;20651;-63
2021/03/01 12:29:31;;;;;;;25.05;15.02;;;;;;;;;;5134714;27;20199;-65
2021/03/01 12:31:58;;;;;;;23.33;12.85;;;;;;;;;;5134264;27;20286;-63
2021/03/01 12:34:25;;;;;;;23.55;14.13;;;;;;;;;;5134592;27;20284;-65
2021/03/01 12:36:51;;;;;;;23.27;14.07;;;;;;;;;;5134575;27;20194;-63
2021/03/01 12:39:18;;;;;;;24.20;14.50;;;;;;;;;;5134673;27;20225;-63
2021/03/01 12:41:45;;;;;;;21.15;13.32;;;;;;;;;;5134183;27;20204;-63
2021/03/01 12:44:11;;;;;;;26.70;14.63;;;;;;;;;;5134509;27;20254;-63
2021/03/01 12:46:39;;;;;;;22.52;12.57;;;;;;;;;;5134321;27;20758;-63
2021/03/01 12:49:06;;;;;;;25.92;12.73;;;;;;;;;;5134155;28;20717;-63
2021/03/01 12:51:32;;;;;;;20.30;13.73;;;;;;;;;;5134620;28;20288;-63
2021/03/01 12:53:59;;;;;;;19.35;12.88;;;;;;;;;;5134488;28;20234;-63
2021/03/01 12:56:26;;;;;;;21.08;12.00;;;;;;;;;;5134067;28;20242;-63
2021/03/01 12:58:52;;;;;;;17.83;11.93;;;;;;;;;;5134557;28;20204;-63
2021/03/01 13:01:19;;;;;;;22.63;11.70;;;;;;;;;;5134284;28;20299;-63
2021/03/01 13:03:47;;;;;;;23.98;11.60;;;;;;;;;;5136533;27;20240;-62
2021/03/01 13:06:14;;;;;;;21.13;12.85;;;;;;;;;;5138628;27;20200;-63
2021/03/01 13:08:40;;;;;;;22.58;13.77;;;;;;;;;;5138492;27;20197;-63
2021/03/01 13:11:07;;;;;;;21.08;13.38;;;;;;;;;;5139006;27;20201;-64
2021/03/01 13:13:34;;;;;;;20.27;12.25;;;;;;;;;;5138310;27;20665;-63
2021/03/01 13:16:01;;;;;;;21.65;13.90;;;;;;;;;;5138589;27;20283;-63
2021/03/01 13:18:28;;;;;;;23.58;12.68;;;;;;;;;;5138131;27;20204;-63
2021/03/01 13:20:55;;;;;;;20.92;12.95;;;;;;;;;;5138242;27;20194;-63
2021/03/01 13:23:22;;;;;;;22.02;13.57;;;;;;;;;;5137676;27;20213;-63
2021/03/01 13:25:49;;;;;;;16.20;11.30;;;;;;;;;;5138059;27;20223;-63
2021/03/01 13:28:16;;;;;;;22.48;13.73;;;;;;;;;;5138103;27;20280;-63
2021/03/01 13:30:43;;;;;;;22.15;13.52;;;;;;;;;;5137813;27;20197;-63
2021/03/01 13:33:10;;;;;;;18.23;11.70;;;;;;;;;;5138089;27;20205;-63
2021/03/01 13:35:36;;;;;;;22.00;14.45;;;;;;;;;;5137634;27;20285;-63
2021/03/01 13:38:04;;;;;;;19.83;12.00;;;;;;;;;;5137774;27;20771;-62
2021/03/01 13:40:31;;;;;;;22.20;13.38;;;;;;;;;;5137924;27;20547;-63
2021/03/01 13:42:58;;;;;;;18.45;11.35;;;;;;;;;;5138099;27;20229;-61
2021/03/01 13:45:25;;;;;;;21.65;13.75;;;;;;;;;;5136857;27;20520;-62
2021/03/01 13:47:51;;;;;;;19.33;12.45;;;;;;;;;;5138169;27;20579;-64
2021/03/01 13:50:18;;;;;;;18.73;11.63;;;;;;;;;;5137238;27;20293;-63
2021/03/01 13:52:45;;;;;;;16.75;11.85;;;;;;;;;;5137254;27;20220;-63
2021/03/01 13:55:13;;;;;;;17.17;10.68;;;;;;;;;;5137477;27;20201;-64
2021/03/01 13:57:40;;;;;;;16.52;10.70;;;;;;;;;;5137376;27;20195;-63
2021/03/01 14:00:08;;;;;;;18.77;11.27;;;;;;;;;;5137630;27;20297;-63
2021/03/01 14:02:35;;;;;;;17.83;11.75;;;;;;;;;;5137384;27;20222;-64
2021/03/01 14:05:02;;;;;;;19.10;12.40;;;;;;;;;;5136774;27;20283;-63
2021/03/01 14:07:28;;;;;;;24.13;12.60;;;;;;;;;;5135982;28;20285;-63
2021/03/01 14:09:55;;;;;;;19.25;10.90;;;;;;;;;;5135995;28;20305;-64
2021/03/01 14:12:23;;;;;;;19.95;11.88;;;;;;;;;;5135602;28;20202;-63
2021/03/01 14:14:49;;;;;;;20.60;11.93;;;;;;;;;;5135016;27;20645;-63
2021/03/01 14:17:16;;;;;;;17.20;11.23;;;;;;;;;;5135640;28;20273;-63
2021/03/01 14:19:43;;;;;;;16.40;11.32;;;;;;;;;;5135829;28;20278;-63
2021/03/01 14:22:09;;;;;;;19.80;12.35;;;;;;;;;;5135522;28;20200;-63